createdAt,value
2023-04-27T00:01:48.766Z,10.07
2023-04-27T00:04:34.502Z,10.93
2023-04-27T00:07:20.700Z,12.50
2023-04-27T00:10:07.840Z,13.27
2023-04-27T00:12:53.385Z,13.23
2023-04-27T00:15:40.926Z,12.00
2023-04-27T00:18:26.381Z,11.93
2023-04-27T00:21:12.140Z,12.02
2023-04-27T00:23:58.046Z,12.15
2023-04-27T00:26:43.518Z,12.10
2023-04-27T00:29:29.162Z,10.77
2023-04-27T00:32:16.556Z,10.95
2023-04-27T00:35:02.358Z,11.65
2023-04-27T00:37:47.936Z,10.65
2023-04-27T00:40:33.711Z,10.55
2023-04-27T00:43:19.517Z,9.63
2023-04-27T00:46:05.630Z,9.50
2023-04-27T00:48:52.428Z,9.38
2023-04-27T00:51:38.180Z,9.07
2023-04-27T00:54:23.996Z,9.25
2023-04-27T00:57:10.901Z,9.30
2023-04-27T00:59:56.979Z,9.65
2023-04-27T01:02:44.037Z,9.55
2023-04-27T01:05:32.745Z,9.20
2023-04-27T01:08:18.407Z,9.13
2023-04-27T01:11:03.754Z,9.25
2023-04-27T01:13:51.437Z,8.50
2023-04-27T01:16:38.001Z,8.73
2023-04-27T01:19:23.799Z,8.48
2023-04-27T01:22:11.015Z,8.85
2023-04-27T01:24:58.946Z,8.77
2023-04-27T01:27:44.365Z,9.07
2023-04-27T01:30:30.531Z,9.30
2023-04-27T01:33:18.131Z,9.10
2023-04-27T01:36:08.904Z,8.63
2023-04-27T01:38:54.299Z,8.02
2023-04-27T01:41:41.817Z,8.75
2023-04-27T01:44:28.831Z,8.85
2023-04-27T01:47:15.908Z,8.38
2023-04-27T01:50:01.983Z,8.65
2023-04-27T01:52:48.527Z,8.90
2023-04-27T01:55:33.982Z,9.05
2023-04-27T01:58:22.121Z,9.98
2023-04-27T02:01:07.576Z,9.88
2023-04-27T02:03:53.374Z,8.95
2023-04-27T02:06:39.608Z,9.18
2023-04-27T02:09:26.081Z,9.07
2023-04-27T02:12:11.816Z,9.50
2023-04-27T02:14:58.783Z,8.77
2023-04-27T02:17:45.512Z,8.10
2023-04-27T02:20:32.289Z,8.82
2023-04-27T02:23:19.532Z,8.93
2023-04-27T02:26:05.945Z,9.63
2023-04-27T02:28:51.469Z,11.60
2023-04-27T02:31:39.505Z,9.98
2023-04-27T02:34:25.009Z,11.05
2023-04-27T02:37:10.454Z,10.13
2023-04-27T02:39:56.414Z,9.80
2023-04-27T02:42:42.390Z,9.25
2023-04-27T02:45:30.866Z,8.70
2023-04-27T02:48:19.191Z,9.13
2023-04-27T02:51:05.393Z,8.60
2023-04-27T02:53:52.972Z,10.23
2023-04-27T02:56:38.585Z,10.70
2023-04-27T02:59:24.027Z,11.60
2023-04-27T03:02:10.294Z,11.93
2023-04-27T03:04:57.561Z,11.95
2023-04-27T03:07:43.591Z,13.00
2023-04-27T03:10:29.264Z,11.50
2023-04-27T03:13:15.883Z,10.07
2023-04-27T03:16:03.329Z,8.93
2023-04-27T03:18:49.242Z,8.10
2023-04-27T03:21:36.722Z,8.25
2023-04-27T03:24:25.505Z,7.80
2023-04-27T03:27:11.053Z,7.20
2023-04-27T03:29:56.657Z,8.18
2023-04-27T03:32:43.553Z,8.63
2023-04-27T03:35:30.725Z,7.80
2023-04-27T03:38:19.974Z,8.00
2023-04-27T03:41:07.946Z,8.98
2023-04-27T03:43:55.341Z,9.00
2023-04-27T03:46:41.170Z,9.18
2023-04-27T03:49:27.752Z,8.27
2023-04-27T03:52:14.065Z,9.13
2023-04-27T03:55:01.894Z,9.10
2023-04-27T03:57:47.380Z,10.13
2023-04-27T04:00:33.327Z,9.13
2023-04-27T04:03:18.932Z,8.40
2023-04-27T04:06:05.249Z,8.27
2023-04-27T04:08:50.691Z,9.10
2023-04-27T04:11:38.113Z,8.02
2023-04-27T04:14:25.587Z,8.13
2023-04-27T04:17:11.297Z,7.95
2023-04-27T04:19:59.332Z,8.57
2023-04-27T04:22:45.445Z,8.70
2023-04-27T04:25:32.155Z,9.10
2023-04-27T04:28:19.233Z,8.20
2023-04-27T04:31:05.798Z,8.70
2023-04-27T04:33:52.325Z,8.95
2023-04-27T04:36:38.062Z,8.15
2023-04-27T04:39:23.849Z,8.43
2023-04-27T04:42:09.611Z,9.07
2023-04-27T04:44:57.010Z,8.88
2023-04-27T04:47:42.446Z,8.10
2023-04-27T04:50:30.110Z,8.30
2023-04-27T04:53:15.935Z,8.57
2023-04-27T04:56:09.189Z,8.38
2023-04-27T04:58:55.074Z,8.50
2023-04-27T05:01:42.521Z,8.18
2023-04-27T05:04:28.785Z,8.73
2023-04-27T05:07:15.255Z,8.57
2023-04-27T05:10:02.139Z,8.07
2023-04-27T05:12:47.934Z,6.13
2023-04-27T05:15:33.363Z,5.10
2023-04-27T05:18:21.120Z,7.75
2023-04-27T05:21:14.068Z,8.68
2023-04-27T05:23:59.977Z,7.82
2023-04-27T05:26:45.458Z,6.10
2023-04-27T05:29:31.507Z,6.30
2023-04-27T05:32:17.053Z,6.05
2023-04-27T05:35:05.135Z,5.35
2023-04-27T05:37:50.821Z,4.40
2023-04-27T05:40:36.389Z,4.63
2023-04-27T05:43:22.086Z,4.30
2023-04-27T05:46:07.888Z,5.03
2023-04-27T05:48:53.621Z,7.70
2023-04-27T05:51:41.349Z,5.40
2023-04-27T05:54:27.608Z,5.05
2023-04-27T05:57:13.311Z,4.90
2023-04-27T05:59:59.746Z,4.90
2023-04-27T06:02:45.615Z,5.00
2023-04-27T06:05:31.475Z,5.13
2023-04-27T06:08:19.163Z,5.03
2023-04-27T06:11:04.914Z,4.78
2023-04-27T06:13:50.551Z,5.10
2023-04-27T06:16:36.478Z,4.75
2023-04-27T06:19:22.183Z,4.68
2023-04-27T06:22:07.906Z,5.13
2023-04-27T06:24:54.844Z,4.72
2023-04-27T06:27:40.768Z,5.28
2023-04-27T06:30:26.791Z,4.93
2023-04-27T06:33:12.258Z,5.30
2023-04-27T06:35:58.514Z,5.47
2023-04-27T06:38:44.253Z,5.68
2023-04-27T06:41:31.496Z,5.03
2023-04-27T06:44:17.089Z,4.85
2023-04-27T06:47:02.758Z,4.97
2023-04-27T06:49:49.849Z,4.93
2023-04-27T06:52:35.718Z,4.68
2023-04-27T06:55:21.533Z,4.70
2023-04-27T06:58:08.988Z,5.15
2023-04-27T07:00:54.665Z,4.47
2023-04-27T07:03:40.795Z,4.82
2023-04-27T07:06:28.749Z,5.20
2023-04-27T07:09:26.476Z,4.88
2023-04-27T07:12:13.278Z,4.80
2023-04-27T07:15:00.962Z,4.00
2023-04-27T07:17:46.756Z,3.88
2023-04-27T07:20:32.374Z,3.65
2023-04-27T07:23:18.117Z,4.07
2023-04-27T07:26:03.490Z,4.10
2023-04-27T07:28:50.218Z,2.65
2023-04-27T07:31:37.480Z,2.78
2023-04-27T07:34:23.919Z,2.60
2023-04-27T07:37:09.774Z,2.45
2023-04-27T07:39:55.524Z,2.50
2023-04-27T07:42:42.091Z,2.25
2023-04-27T07:45:32.092Z,2.40
2023-04-27T07:48:19.207Z,2.45
2023-04-27T07:51:04.800Z,1.88
2023-04-27T07:53:50.295Z,2.35
2023-04-27T07:56:36.299Z,1.77
2023-04-27T07:59:22.230Z,1.75
2023-04-27T08:02:18.972Z,2.00
2023-04-27T08:05:07.746Z,2.20
2023-04-27T08:07:54.745Z,2.10
2023-04-27T08:10:42.909Z,2.08
2023-04-27T08:13:28.738Z,2.22
2023-04-27T08:16:14.548Z,2.10
2023-04-27T08:19:01.333Z,2.20
2023-04-27T08:21:50.887Z,1.90
2023-04-27T08:24:37.475Z,2.13
2023-04-27T08:27:23.409Z,2.08
2023-04-27T08:30:10.085Z,2.67
2023-04-27T08:32:56.322Z,1.77
2023-04-27T08:35:42.732Z,1.75
2023-04-27T08:38:30.188Z,1.77
2023-04-27T08:41:21.875Z,1.58
2023-04-27T08:44:08.630Z,1.75
2023-04-27T08:46:54.871Z,1.90
2023-04-27T08:49:41.871Z,1.75
2023-04-27T08:52:29.229Z,2.30
2023-04-27T08:55:16.867Z,1.88
2023-04-27T08:58:04.277Z,2.00
2023-04-27T09:00:52.681Z,1.58
2023-04-27T09:03:38.800Z,1.67
2023-04-27T09:06:32.795Z,2.22
2023-04-27T09:09:23.173Z,1.90
2023-04-27T09:12:17.632Z,1.70
2023-04-27T09:15:06.265Z,1.98
2023-04-27T09:17:55.415Z,2.03
2023-04-27T09:20:50.327Z,2.00
2023-04-27T09:23:37.579Z,2.03
2023-04-27T09:26:26.039Z,2.17
2023-04-27T09:29:13.169Z,2.35
2023-04-27T09:31:59.281Z,2.35
2023-04-27T09:34:47.738Z,2.80
2023-04-27T09:37:33.862Z,2.20
2023-04-27T09:40:30.752Z,5.95
2023-04-27T09:43:17.313Z,2.17
2023-04-27T09:46:05.769Z,2.17
2023-04-27T09:48:53.220Z,2.42
2023-04-27T09:51:39.602Z,2.30
2023-04-27T09:54:30.134Z,2.33
2023-04-27T09:57:27.712Z,2.53
2023-04-27T10:00:26.358Z,2.28
2023-04-27T10:03:25.526Z,2.50
2023-04-27T10:06:37.424Z,2.15
2023-04-27T10:09:23.872Z,2.45
2023-04-27T10:12:18.604Z,2.63
2023-04-27T10:15:13.516Z,2.92
2023-04-27T10:18:05.468Z,2.33
2023-04-27T10:20:53.037Z,2.53
2023-04-27T10:23:46.764Z,2.50
2023-04-27T10:26:33.488Z,2.35
2023-04-27T10:29:19.589Z,2.10
2023-04-27T10:32:09.832Z,2.60
2023-04-27T10:35:06.274Z,2.25
2023-04-27T10:37:53.731Z,2.05
2023-04-27T10:40:41.149Z,2.10
2023-04-27T10:43:28.549Z,2.42
2023-04-27T10:46:15.867Z,2.60
2023-04-27T10:49:05.584Z,2.60
2023-04-27T10:51:51.805Z,2.83
2023-04-27T10:54:39.826Z,2.70
2023-04-27T10:57:26.788Z,2.90
2023-04-27T11:00:16.201Z,2.97
2023-04-27T11:03:12.370Z,2.92
2023-04-27T11:06:04.136Z,3.00
2023-04-27T11:08:50.744Z,2.70
2023-04-27T11:11:38.467Z,2.88
2023-04-27T11:14:24.056Z,3.17
2023-04-27T11:17:10.077Z,3.05
2023-04-27T11:19:56.252Z,3.30
2023-04-27T11:22:46.385Z,3.08
2023-04-27T11:25:32.731Z,3.15
2023-04-27T11:28:20.567Z,2.80
2023-04-27T11:31:07.010Z,3.10
2023-04-27T11:33:56.109Z,3.50
2023-04-27T11:36:42.328Z,3.13
2023-04-27T11:39:29.240Z,3.05
2023-04-27T11:42:18.084Z,4.15
2023-04-27T11:45:12.260Z,3.17
2023-04-27T11:47:59.411Z,3.40
2023-04-27T11:50:48.215Z,3.58
2023-04-27T11:53:35.636Z,3.50
2023-04-27T11:56:21.804Z,3.38
2023-04-27T11:59:19.254Z,3.60
2023-04-27T12:02:07.462Z,3.42
2023-04-27T12:04:53.431Z,3.40
2023-04-27T12:07:39.627Z,3.63
2023-04-27T12:10:25.407Z,3.35
2023-04-27T12:13:15.880Z,3.85
2023-04-27T12:16:02.559Z,3.95
2023-04-27T12:18:51.086Z,3.60
2023-04-27T12:21:36.719Z,3.90
2023-04-27T12:24:22.296Z,4.07
2023-04-27T12:27:08.398Z,3.83
2023-04-27T12:29:55.233Z,3.78
2023-04-27T12:32:43.881Z,3.58
2023-04-27T12:35:32.294Z,3.95
2023-04-27T12:38:18.308Z,3.53
2023-04-27T12:41:04.316Z,3.97
2023-04-27T12:43:50.776Z,4.20
2023-04-27T12:46:36.553Z,4.07
2023-04-27T12:49:22.470Z,3.58
2023-04-27T12:52:09.709Z,3.42
2023-04-27T12:54:59.239Z,3.80
2023-04-27T12:57:45.034Z,3.85
2023-04-27T13:00:31.474Z,3.63
2023-04-27T13:03:17.431Z,3.80
2023-04-27T13:06:03.782Z,4.05
2023-04-27T13:08:51.469Z,4.03
2023-04-27T13:11:38.265Z,3.75
2023-04-27T13:14:25.394Z,3.97
2023-04-27T13:17:11.189Z,3.55
2023-04-27T13:19:57.062Z,3.53
2023-04-27T13:22:42.776Z,3.92
2023-04-27T13:25:29.653Z,3.67
2023-04-27T13:28:15.624Z,4.13
2023-04-27T13:31:01.482Z,3.80
2023-04-27T13:33:47.293Z,3.88
2023-04-27T13:36:33.369Z,4.07
2023-04-27T13:39:19.264Z,4.10
2023-04-27T13:42:06.528Z,4.05
2023-04-27T13:44:52.285Z,3.65
2023-04-27T13:47:37.984Z,3.90
2023-04-27T13:50:24.158Z,3.65
2023-04-27T13:53:10.030Z,3.22
2023-04-27T13:55:57.146Z,3.55
2023-04-27T13:58:44.331Z,3.00
2023-04-27T14:01:30.445Z,3.13
2023-04-27T14:04:16.472Z,2.70
2023-04-27T14:07:02.123Z,2.80
2023-04-27T14:09:47.805Z,3.08
2023-04-27T14:12:34.001Z,2.55
2023-04-27T14:15:21.072Z,2.70
2023-04-27T14:18:08.256Z,2.80
2023-04-27T14:20:55.592Z,3.25
2023-04-27T14:23:40.962Z,2.60
2023-04-27T14:26:26.428Z,2.50
2023-04-27T14:29:12.161Z,3.00
2023-04-27T14:31:59.139Z,2.67
2023-04-27T14:34:45.915Z,3.00
2023-04-27T14:37:31.477Z,2.97
2023-04-27T14:40:17.687Z,3.08
2023-04-27T14:43:03.389Z,3.20
2023-04-27T14:45:54.029Z,2.85
2023-04-27T14:48:42.800Z,2.83
2023-04-27T14:51:32.530Z,2.50
2023-04-27T14:54:18.681Z,2.70
2023-04-27T14:57:04.550Z,2.90
2023-04-27T14:59:50.325Z,2.65
2023-04-27T15:02:36.743Z,2.80
2023-04-27T15:05:24.186Z,2.50
2023-04-27T15:08:10.314Z,2.72
2023-04-27T15:10:59.236Z,3.20
2023-04-27T15:13:45.094Z,2.72
2023-04-27T15:16:31.475Z,3.10
2023-04-27T15:19:17.187Z,3.00
2023-04-27T15:22:04.192Z,3.10
2023-04-27T15:24:50.163Z,3.00
2023-04-27T15:27:36.099Z,3.35
2023-04-27T15:30:21.783Z,3.33
2023-04-27T15:33:10.073Z,3.40
2023-04-27T15:35:56.213Z,3.58
2023-04-27T15:38:43.636Z,3.13
2023-04-27T15:41:39.109Z,4.07
2023-04-27T15:44:25.600Z,3.33
2023-04-27T15:47:12.046Z,3.72
2023-04-27T15:49:58.493Z,3.28
2023-04-27T15:52:44.379Z,3.33
2023-04-27T15:55:32.179Z,3.30
2023-04-27T15:58:17.898Z,3.40
2023-04-27T16:01:03.508Z,3.67
2023-04-27T16:03:49.785Z,3.33
2023-04-27T16:06:36.789Z,3.95
2023-04-27T16:09:23.411Z,3.72
2023-04-27T16:12:10.810Z,3.22
2023-04-27T16:14:59.698Z,3.28
2023-04-27T16:17:45.566Z,3.42
2023-04-27T16:20:32.281Z,3.25
2023-04-27T16:23:18.728Z,3.38
2023-04-27T16:26:04.208Z,3.63
2023-04-27T16:28:51.626Z,3.00
2023-04-27T16:31:37.770Z,3.72
2023-04-27T16:34:23.480Z,3.13
2023-04-27T16:37:10.837Z,3.88
2023-04-27T16:39:59.795Z,2.80
2023-04-27T16:42:45.220Z,3.75
2023-04-27T16:45:33.182Z,3.40
2023-04-27T16:48:19.148Z,3.30
2023-04-27T16:51:05.105Z,3.17
2023-04-27T16:53:50.997Z,3.33
2023-04-27T16:56:36.780Z,3.08
2023-04-27T16:59:22.837Z,3.50
2023-04-27T17:02:23.006Z,3.95
2023-04-27T17:05:09.909Z,3.30
2023-04-27T17:07:55.958Z,3.70
2023-04-27T17:10:42.080Z,3.90
2023-04-27T17:13:27.454Z,3.33
2023-04-27T17:16:13.582Z,3.35
2023-04-27T17:19:00.608Z,3.50
2023-04-27T17:21:46.435Z,3.60
2023-04-27T17:24:32.334Z,3.58
2023-04-27T17:27:19.637Z,4.20
2023-04-27T17:30:08.127Z,3.83
2023-04-27T17:32:54.315Z,3.75
2023-04-27T17:35:44.339Z,3.60
2023-04-27T17:38:29.885Z,3.80
2023-04-27T17:41:15.849Z,4.22
2023-04-27T17:44:01.247Z,4.25
2023-04-27T17:46:47.732Z,4.30
2023-04-27T17:49:33.918Z,4.38
2023-04-27T17:52:21.144Z,5.35
2023-04-27T17:55:07.423Z,5.47
2023-04-27T17:57:53.306Z,5.35
2023-04-27T18:00:39.136Z,5.60
2023-04-27T18:03:26.949Z,3.92
2023-04-27T18:06:13.094Z,3.55
2023-04-27T18:09:00.657Z,4.07
2023-04-27T18:11:46.291Z,3.65
2023-04-27T18:14:32.331Z,3.50
2023-04-27T18:17:18.219Z,3.65
2023-04-27T18:20:09.458Z,3.95
2023-04-27T18:22:56.156Z,3.85
2023-04-27T18:25:43.534Z,4.03
2023-04-27T18:28:29.327Z,3.40
2023-04-27T18:31:15.843Z,3.58
2023-04-27T18:34:01.303Z,3.60
2023-04-27T18:36:52.718Z,3.70
2023-04-27T18:39:38.609Z,4.32
2023-04-27T18:42:26.138Z,3.65
2023-04-27T18:45:12.021Z,4.22
2023-04-27T18:47:57.976Z,3.50
2023-04-27T18:50:43.813Z,3.70
2023-04-27T18:53:29.669Z,3.80
2023-04-27T18:56:15.365Z,4.28
2023-04-27T18:59:02.717Z,3.70
2023-04-27T19:01:48.486Z,3.55
2023-04-27T19:04:34.507Z,3.33
2023-04-27T19:07:20.468Z,4.07
2023-04-27T19:10:07.569Z,4.00
2023-04-27T19:12:53.363Z,4.13
2023-04-27T19:15:40.739Z,4.03
2023-04-27T19:18:26.549Z,3.45
2023-04-27T19:21:12.927Z,3.42
2023-04-27T19:23:58.822Z,4.15
2023-04-27T19:26:46.696Z,3.50
2023-04-27T19:29:47.626Z,3.75
2023-04-27T19:32:34.622Z,3.60
2023-04-27T19:35:23.537Z,3.50
2023-04-27T19:38:10.044Z,3.75
2023-04-27T19:40:56.366Z,3.90
2023-04-27T19:43:41.956Z,3.70
2023-04-27T19:46:28.066Z,3.70
2023-04-27T19:49:15.920Z,3.70
2023-04-27T19:52:01.806Z,3.90
2023-04-27T19:54:52.155Z,3.67
2023-04-27T19:57:38.231Z,3.75
2023-04-27T20:00:23.911Z,3.60
2023-04-27T20:03:10.347Z,4.03
2023-04-27T20:05:58.317Z,3.97
2023-04-27T20:08:44.195Z,3.67
2023-04-27T20:11:29.913Z,3.78
2023-04-27T20:14:15.544Z,4.57
2023-04-27T20:17:02.419Z,4.00
2023-04-27T20:19:48.129Z,4.05
2023-04-27T20:22:35.764Z,4.68
2023-04-27T20:25:21.175Z,4.28
2023-04-27T20:28:07.257Z,4.20
2023-04-27T20:30:53.162Z,3.95
2023-04-27T20:33:38.628Z,3.83
2023-04-27T20:36:24.465Z,3.65
2023-04-27T20:39:12.037Z,4.30
2023-04-27T20:41:58.074Z,3.92
2023-04-27T20:44:46.024Z,4.30
2023-04-27T20:47:32.201Z,4.40
2023-04-27T20:50:18.310Z,3.97
2023-04-27T20:53:04.175Z,4.32
2023-04-27T20:55:51.059Z,4.10
2023-04-27T20:58:36.898Z,4.40
2023-04-27T21:01:23.033Z,4.03
2023-04-27T21:04:08.976Z,4.18
2023-04-27T21:06:54.924Z,4.50
2023-04-27T21:09:40.898Z,4.40
2023-04-27T21:12:28.337Z,4.53
2023-04-27T21:15:14.104Z,4.00
2023-04-27T21:18:00.647Z,4.15
2023-04-27T21:20:46.344Z,3.90
2023-04-27T21:23:34.463Z,4.15
2023-04-27T21:26:19.992Z,3.95
2023-04-27T21:29:08.246Z,4.32
2023-04-27T21:31:53.761Z,4.25
2023-04-27T21:34:39.327Z,3.90
2023-04-27T21:37:24.979Z,4.20
2023-04-27T21:40:11.460Z,4.53
2023-04-27T21:42:57.392Z,4.03
2023-04-27T21:45:44.371Z,4.03
2023-04-27T21:48:29.956Z,3.83
2023-04-27T21:51:15.837Z,4.50
2023-04-27T21:54:02.352Z,4.13
2023-04-27T21:56:48.266Z,3.83
2023-04-27T21:59:34.414Z,4.07
2023-04-27T22:02:21.303Z,4.15
2023-04-27T22:05:06.888Z,4.10
2023-04-27T22:07:53.458Z,4.03
2023-04-27T22:10:39.214Z,4.30
2023-04-27T22:13:25.185Z,3.88
2023-04-27T22:16:13.643Z,3.83
2023-04-27T22:19:01.117Z,4.45
2023-04-27T22:21:46.667Z,4.40
2023-04-27T22:24:32.389Z,3.97
2023-04-27T22:27:17.951Z,4.40
2023-04-27T22:30:04.267Z,4.35
2023-04-27T22:32:50.342Z,4.32
2023-04-27T22:35:37.563Z,4.70
2023-04-27T22:38:23.537Z,4.60
2023-04-27T22:41:09.147Z,4.55
2023-04-27T22:43:54.457Z,4.20
2023-04-27T22:46:40.001Z,4.22
2023-04-27T22:49:25.883Z,4.45
2023-04-27T22:52:12.838Z,4.78
2023-04-27T22:54:58.682Z,4.28
2023-04-27T22:57:44.680Z,4.22
2023-04-27T23:00:30.832Z,4.65
2023-04-27T23:03:16.758Z,4.38
2023-04-27T23:06:02.959Z,4.30
2023-04-27T23:08:50.342Z,4.65
2023-04-27T23:11:36.655Z,4.85
2023-04-27T23:14:22.585Z,5.05
2023-04-27T23:17:08.433Z,4.40
2023-04-27T23:19:53.863Z,4.70
2023-04-27T23:22:43.589Z,4.78
2023-04-27T23:25:33.183Z,4.43
2023-04-27T23:28:18.988Z,4.43
2023-04-27T23:31:05.119Z,4.53
2023-04-27T23:33:50.742Z,4.57
2023-04-27T23:36:36.354Z,4.95
2023-04-27T23:39:22.087Z,4.78
2023-04-27T23:42:09.064Z,4.78
2023-04-27T23:44:54.741Z,4.47
2023-04-27T23:47:40.664Z,4.38
2023-04-27T23:50:26.671Z,4.32
2023-04-27T23:53:12.251Z,4.55
2023-04-27T23:55:58.206Z,4.35
2023-04-27T23:58:45.331Z,4.07
